Commit Graph

351 Commits

Author SHA1 Message Date
liamcottle 5efc7b57bd add params to api docs 2024-12-17 16:57:47 +13:00
liamcottle a10aae3de0 update docs 2024-12-17 16:41:56 +13:00
liamcottle 8cc0d4bd83 update api docs endpoint 2024-12-17 16:25:07 +13:00
liamcottle d90d4b0b28 collect wind environment metrics 2024-12-17 16:09:55 +13:00
liamcottle 58e256de5d update telemetry proto 2024-12-17 15:47:24 +13:00
liamcottle 1b3d4c9635 show temperature in graph down to -20ºc 2024-12-16 00:23:10 +13:00
liamcottle ac10e81343 fix bug where forgetting outdated node positions updated the updated_at column when the node never had a position 2024-12-12 14:14:20 +13:00
liamcottle f4295deb04 don't use node reported altitude for now 2024-11-24 17:08:08 +13:00
liamcottle 53c104e3ad add dynamic terrain image to neighbour line popups 2024-11-24 16:51:34 +13:00
liamcottle 3d11f77eb1 add cli option to forget outdated positions for nodes 2024-11-21 12:56:10 +13:00
liamcottle 1de9effd9a add open topo map layer 2024-11-21 11:09:14 +13:00
liamcottle bbf9a50353 add seconds to date time 2024-11-07 23:14:26 +13:00
liamcottle e76abd8d9f remove colon between minutes and am/pm 2024-11-07 23:09:34 +13:00
liamcottle 537f81230b show full date and time for gated messages instead of relative time ago 2024-11-07 23:07:51 +13:00
liamcottle 322a17bca1 adjust lang 2024-10-03 10:26:54 +13:00
liamcottle 4959df3119 update position precision on packet to show that it is no longer full precision 2024-10-03 10:14:21 +13:00
liamcottle ebf4c75bfa use same logic as meshtastic firmware to obfuscate position 2024-10-03 09:52:41 +13:00
liamcottle 14c7339ed0 implement function to set integer position precision in bits 2024-10-03 09:41:57 +13:00
liamcottle 98a58eb3e3 add info about positions on v2.4 being truncated 2024-10-02 22:10:19 +13:00
liamcottle 7e316d3194 add todo 2024-10-02 21:48:03 +13:00
liamcottle e57f1a2b67 set node position precision from position packet 2024-10-02 20:38:06 +13:00
liamcottle 9bebc870bd add cli flag to limit position precision to x decimal places for v2.4 firmware and older 2024-10-02 01:52:03 +13:00
liamcottle 759567917a add cli flag to drop portnums that don't have the bitfield available 2024-09-28 09:47:26 +12:00
liamcottle 90529f9486 add info about disabling ok to mqtt in v2.5 firmware to be hidden from this public map 2024-09-27 17:19:39 +12:00
liamcottle 23c2786f05 add info about v2.5 firmware needing ok to mqtt enabled 2024-09-27 17:02:16 +12:00
liamcottle 792833a14e add cli flag to drop packets that are not ok to mqtt 2024-09-27 16:06:46 +12:00
liamcottle 21272afab1 adjust range of pressure chart scale 2024-09-11 12:34:55 +12:00
liamcottle 2cd6e570eb cli options should not default to true, as it's impossible to turn off 2024-09-09 14:07:51 +12:00
liamcottle 0e0ed2b9ee add mqtt cli option to only allow processing specific portnums 2024-09-09 13:52:21 +12:00
liamcottle ce4895bb8c add flag comments 2024-09-09 13:45:11 +12:00
liamcottle 2aec144e91 add cli option to log packets for unknown portnums 2024-09-09 13:28:04 +12:00
liamcottle 6260b58f81 remove old blocks 2024-09-09 13:07:46 +12:00
liamcottle 2996dd6f7f show who gated a message 2024-09-08 22:58:38 +12:00
liamcottle 1c2b0faaad implement new environment metrics chart 2024-09-08 22:30:22 +12:00
liamcottle 6a01c51455 add node icons to traceroute viewer 2024-09-08 13:34:06 +12:00
liamcottle 3ee7138182 ensure new fields are json arrays in response 2024-09-08 13:04:48 +12:00
liamcottle e2f354573a collect new snr and route back info for traceroutes 2024-09-08 13:00:49 +12:00
liamcottle e12e56a221 cleanup 2024-09-08 00:09:50 +12:00
liamcottle fff4cc9a49 use axios instead of fetch 2024-09-07 23:45:53 +12:00
liamcottle 816193dff6 filter nodes by role 2024-09-07 23:39:41 +12:00
liamcottle 042b81b3bc filter nodes by hardware model 2024-09-07 23:36:09 +12:00
liamcottle 3532b25cd7 add device image for TRACKER_T1000_E 2024-09-07 23:22:48 +12:00
liamcottle 8cf2c4840f add device image for SENSECAP_INDICATOR 2024-09-07 23:22:41 +12:00
liamcottle f27168e1fd update mesh.proto for new device types 2024-09-07 22:56:16 +12:00
liamcottle 954f10868f ensure light background uses dark text 2024-09-07 21:57:23 +12:00
liamcottle 18c3ccb7cc add button to minimise position history overlay 2024-09-04 18:01:54 +12:00
liamcottle cebfb6a2d9 use self hosted assets for message viewer 2024-09-04 16:59:35 +12:00
liamcottle a4f3dfcb1c get rid of annoying alert for nodes without position 2024-09-04 12:59:41 +12:00
liamcottle cd2929080e limit search results to 500 to improve speed 2024-09-04 12:37:51 +12:00
liamcottle 17cd661c6a add node icon to search results 2024-09-04 12:32:17 +12:00